If you wish to contribute or participate in the discussions about articles you are invited to join SKYbrary as a registered user

 Actions

Concepción/Carriel Sur International Airport

From SKYbrary Wiki

SCIE
Airport
ICAO: SCIE – IATA: CCP
Summary
Name Concepción/Carriel Sur International Airport
Region South America and Caribbean
Territory Chile CL.gif
Location Concepción, Bío Bío
Serving Concepción
Elevation 7.925 m
26 ft7.925 m
Coordinates 36° 46' 22.00" S, 73° 3' 47.00" W
Runways
Designator Length Width Surface ROPS
2/20 2298 m7,539.37 ft
45 m147.638 ft
ASP yes/yes


METAR
Observation SCIE 151700Z 24017KT CAVOK 21/10 Q1020
Station Concepcion
Date/Time 15 December 2019 17:00:00
Wind direction 240°
Wind speed 17 kts
Lowest cloud amount clouds and visibility OK
Temperature 21°C
Dew point 10°C
Humidity 49%
QNH 1020 hPa
Weather condition n/a

BS
Tag(s) Bird Strike

Concepción/Carriel Sur International Airport

ICAO: SCIE IATA: CCP

Description

Carriel Sur International Airport is located in Concepción, approximately 500 km269.978 nm
500,000 m
1,640,419.949 ft
southwest of Santiago.

Climatology

Oceanic/Dry-summer subtropical ”Mediterranean" climate (Köppen climate classification Csb) - characterized by warm, dry summers and mild winters.

Maps

Terrain

Loading map...

Airport Layout

Loading map...


Accidents & Serious Incidents at or in vicinity of SCIE

None on SKYbrary